sensor_id;sensor_type;location;lat;lon;timestamp;P1;durP1;ratioP1;P2;durP2;ratioP2
61254;SDS011;47128;47.530;8.584;2022-10-16T00:01:47;9.27;;;5.47;;
61254;SDS011;47128;47.530;8.584;2022-10-16T00:04:13;7.43;;;5.22;;
61254;SDS011;47128;47.530;8.584;2022-10-16T00:06:39;7.32;;;4.80;;
61254;SDS011;47128;47.530;8.584;2022-10-16T00:09:05;8.85;;;5.13;;
61254;SDS011;47128;47.530;8.584;2022-10-16T00:11:32;10.48;;;4.75;;
61254;SDS011;47128;47.530;8.584;2022-10-16T00:14:02;9.38;;;5.25;;
61254;SDS011;47128;47.530;8.584;2022-10-16T00:16:30;9.90;;;4.75;;
61254;SDS011;47128;47.530;8.584;2022-10-16T00:18:56;9.60;;;4.80;;
61254;SDS011;47128;47.530;8.584;2022-10-16T00:21:23;12.93;;;5.18;;
61254;SDS011;47128;47.530;8.584;2022-10-16T00:23:51;8.55;;;4.55;;
61254;SDS011;47128;47.530;8.584;2022-10-16T00:26:27;9.57;;;4.10;;
61254;SDS011;47128;47.530;8.584;2022-10-16T00:28:54;8.00;;;4.53;;
61254;SDS011;47128;47.530;8.584;2022-10-16T00:31:21;10.00;;;4.93;;
61254;SDS011;47128;47.530;8.584;2022-10-16T00:33:47;12.60;;;5.55;;
61254;SDS011;47128;47.530;8.584;2022-10-16T00:36:15;12.07;;;5.28;;
61254;SDS011;47128;47.530;8.584;2022-10-16T00:38:42;16.50;;;5.03;;
61254;SDS011;47128;47.530;8.584;2022-10-16T00:41:13;14.02;;;4.95;;
61254;SDS011;47128;47.530;8.584;2022-10-16T00:43:41;9.18;;;4.90;;
61254;SDS011;47128;47.530;8.584;2022-10-16T00:49:09;9.98;;;4.60;;
61254;SDS011;47128;47.530;8.584;2022-10-16T00:51:41;8.63;;;5.30;;
61254;SDS011;47128;47.530;8.584;2022-10-16T00:54:10;12.88;;;5.20;;
61254;SDS011;47128;47.530;8.584;2022-10-16T00:56:48;13.25;;;5.78;;
61254;SDS011;47128;47.530;8.584;2022-10-16T00:59:16;14.40;;;5.68;;
61254;SDS011;47128;47.530;8.584;2022-10-16T01:01:50;11.77;;;5.55;;
61254;SDS011;47128;47.530;8.584;2022-10-16T01:04:16;6.97;;;4.82;;
61254;SDS011;47128;47.530;8.584;2022-10-16T01:09:23;9.77;;;4.40;;
61254;SDS011;47128;47.530;8.584;2022-10-16T01:11:54;5.50;;;4.25;;
61254;SDS011;47128;47.530;8.584;2022-10-16T01:14:37;8.65;;;4.88;;
61254;SDS011;47128;47.530;8.584;2022-10-16T01:17:15;12.38;;;4.82;;
61254;SDS011;47128;47.530;8.584;2022-10-16T01:22:54;9.05;;;4.35;;
61254;SDS011;47128;47.530;8.584;2022-10-16T01:28:15;13.70;;;4.60;;
61254;SDS011;47128;47.530;8.584;2022-10-16T01:30:43;11.65;;;4.85;;
61254;SDS011;47128;47.530;8.584;2022-10-16T01:33:19;8.23;;;5.55;;
61254;SDS011;47128;47.530;8.584;2022-10-16T01:35:49;11.27;;;4.82;;
61254;SDS011;47128;47.530;8.584;2022-10-16T01:38:29;9.60;;;4.10;;
61254;SDS011;47128;47.530;8.584;2022-10-16T01:41:01;8.18;;;4.90;;
61254;SDS011;47128;47.530;8.584;2022-10-16T01:43:37;14.50;;;4.93;;
61254;SDS011;47128;47.530;8.584;2022-10-16T01:46:07;10.35;;;5.32;;
61254;SDS011;47128;47.530;8.584;2022-10-16T01:48:33;10.43;;;5.00;;
61254;SDS011;47128;47.530;8.584;2022-10-16T01:51:04;12.75;;;5.00;;
61254;SDS011;47128;47.530;8.584;2022-10-16T01:55:59;11.40;;;5.22;;
61254;SDS011;47128;47.530;8.584;2022-10-16T01:58:27;11.63;;;4.68;;
61254;SDS011;47128;47.530;8.584;2022-10-16T02:00:59;14.93;;;4.75;;
61254;SDS011;47128;47.530;8.584;2022-10-16T02:03:26;7.72;;;4.75;;
61254;SDS011;47128;47.530;8.584;2022-10-16T02:05:55;8.57;;;4.72;;
61254;SDS011;47128;47.530;8.584;2022-10-16T02:08:23;11.00;;;4.30;;
61254;SDS011;47128;47.530;8.584;2022-10-16T02:10:53;7.03;;;4.55;;
61254;SDS011;47128;47.530;8.584;2022-10-16T02:13:24;7.05;;;3.92;;
61254;SDS011;47128;47.530;8.584;2022-10-16T02:16:10;8.18;;;4.05;;
61254;SDS011;47128;47.530;8.584;2022-10-16T02:18:37;6.55;;;4.32;;
61254;SDS011;47128;47.530;8.584;2022-10-16T02:21:21;5.32;;;4.10;;
61254;SDS011;47128;47.530;8.584;2022-10-16T02:24:03;8.77;;;4.18;;
61254;SDS011;47128;47.530;8.584;2022-10-16T02:26:36;6.05;;;3.83;;
61254;SDS011;47128;47.530;8.584;2022-10-16T02:29:16;8.88;;;3.60;;
61254;SDS011;47128;47.530;8.584;2022-10-16T02:31:46;8.45;;;3.80;;
61254;SDS011;47128;47.530;8.584;2022-10-16T02:34:16;7.07;;;4.10;;
61254;SDS011;47128;47.530;8.584;2022-10-16T02:36:43;11.05;;;4.10;;
61254;SDS011;47128;47.530;8.584;2022-10-16T02:39:10;10.35;;;4.00;;
61254;SDS011;47128;47.530;8.584;2022-10-16T02:41:36;18.17;;;4.32;;
61254;SDS011;47128;47.530;8.584;2022-10-16T02:44:03;7.32;;;3.92;;
61254;SDS011;47128;47.530;8.584;2022-10-16T02:46:28;8.05;;;3.75;;
61254;SDS011;47128;47.530;8.584;2022-10-16T02:48:54;13.30;;;3.67;;
61254;SDS011;47128;47.530;8.584;2022-10-16T02:51:20;10.85;;;3.83;;
61254;SDS011;47128;47.530;8.584;2022-10-16T02:53:45;7.97;;;4.00;;
61254;SDS011;47128;47.530;8.584;2022-10-16T02:56:11;9.93;;;3.85;;
61254;SDS011;47128;47.530;8.584;2022-10-16T02:58:37;7.72;;;3.17;;
61254;SDS011;47128;47.530;8.584;2022-10-16T03:01:02;8.02;;;4.13;;
61254;SDS011;47128;47.530;8.584;2022-10-16T03:03:28;11.55;;;3.55;;
61254;SDS011;47128;47.530;8.584;2022-10-16T03:05:53;21.33;;;4.20;;
61254;SDS011;47128;47.530;8.584;2022-10-16T03:08:19;7.43;;;3.60;;
61254;SDS011;47128;47.530;8.584;2022-10-16T03:10:48;8.23;;;3.67;;
61254;SDS011;47128;47.530;8.584;2022-10-16T03:13:15;11.15;;;3.83;;
61254;SDS011;47128;47.530;8.584;2022-10-16T03:15:40;9.90;;;3.53;;
61254;SDS011;47128;47.530;8.584;2022-10-16T03:18:06;12.10;;;4.00;;
61254;SDS011;47128;47.530;8.584;2022-10-16T03:20:32;8.68;;;3.55;;
61254;SDS011;47128;47.530;8.584;2022-10-16T03:22:58;12.68;;;4.45;;
61254;SDS011;47128;47.530;8.584;2022-10-16T03:25:23;8.63;;;4.70;;
61254;SDS011;47128;47.530;8.584;2022-10-16T03:27:49;8.02;;;4.72;;
61254;SDS011;47128;47.530;8.584;2022-10-16T03:30:15;6.63;;;4.05;;
61254;SDS011;47128;47.530;8.584;2022-10-16T03:32:41;8.05;;;4.28;;
61254;SDS011;47128;47.530;8.584;2022-10-16T03:35:08;10.07;;;3.90;;
61254;SDS011;47128;47.530;8.584;2022-10-16T03:37:34;6.05;;;3.60;;
61254;SDS011;47128;47.530;8.584;2022-10-16T03:40:00;10.32;;;4.00;;
61254;SDS011;47128;47.530;8.584;2022-10-16T03:42:26;5.78;;;4.07;;
61254;SDS011;47128;47.530;8.584;2022-10-16T03:44:51;16.60;;;4.53;;
61254;SDS011;47128;47.530;8.584;2022-10-16T03:47:17;11.13;;;4.47;;
61254;SDS011;47128;47.530;8.584;2022-10-16T03:49:46;7.82;;;4.10;;
61254;SDS011;47128;47.530;8.584;2022-10-16T03:52:12;9.90;;;3.90;;
61254;SDS011;47128;47.530;8.584;2022-10-16T03:54:38;5.50;;;3.50;;
61254;SDS011;47128;47.530;8.584;2022-10-16T03:57:03;9.10;;;4.30;;
61254;SDS011;47128;47.530;8.584;2022-10-16T03:59:31;11.45;;;4.28;;
61254;SDS011;47128;47.530;8.584;2022-10-16T04:01:57;91.38;;;8.85;;
61254;SDS011;47128;47.530;8.584;2022-10-16T04:04:23;28.00;;;6.15;;
61254;SDS011;47128;47.530;8.584;2022-10-16T04:06:49;36.90;;;6.65;;
61254;SDS011;47128;47.530;8.584;2022-10-16T04:09:15;53.50;;;7.82;;
61254;SDS011;47128;47.530;8.584;2022-10-16T04:11:41;100.43;;;10.20;;
61254;SDS011;47128;47.530;8.584;2022-10-16T04:14:06;78.88;;;8.55;;
61254;SDS011;47128;47.530;8.584;2022-10-16T04:16:32;47.60;;;8.50;;
61254;SDS011;47128;47.530;8.584;2022-10-16T04:18:57;47.47;;;7.45;;
61254;SDS011;47128;47.530;8.584;2022-10-16T04:21:23;12.50;;;5.35;;
61254;SDS011;47128;47.530;8.584;2022-10-16T04:23:49;12.07;;;5.50;;
61254;SDS011;47128;47.530;8.584;2022-10-16T04:26:15;15.48;;;5.90;;
61254;SDS011;47128;47.530;8.584;2022-10-16T04:28:40;27.20;;;7.25;;
61254;SDS011;47128;47.530;8.584;2022-10-16T04:31:06;14.95;;;5.82;;
61254;SDS011;47128;47.530;8.584;2022-10-16T04:33:32;10.02;;;5.30;;
61254;SDS011;47128;47.530;8.584;2022-10-16T04:36:01;9.88;;;5.50;;
61254;SDS011;47128;47.530;8.584;2022-10-16T04:38:28;10.32;;;5.30;;
61254;SDS011;47128;47.530;8.584;2022-10-16T04:40:53;9.57;;;4.95;;
61254;SDS011;47128;47.530;8.584;2022-10-16T04:43:19;9.68;;;4.85;;
61254;SDS011;47128;47.530;8.584;2022-10-16T04:45:46;8.50;;;4.20;;
61254;SDS011;47128;47.530;8.584;2022-10-16T04:48:11;8.90;;;5.05;;
61254;SDS011;47128;47.530;8.584;2022-10-16T04:50:37;10.68;;;5.15;;
61254;SDS011;47128;47.530;8.584;2022-10-16T04:53:03;11.52;;;5.80;;
61254;SDS011;47128;47.530;8.584;2022-10-16T04:55:31;22.05;;;6.47;;
61254;SDS011;47128;47.530;8.584;2022-10-16T04:57:59;13.65;;;5.28;;
61254;SDS011;47128;47.530;8.584;2022-10-16T05:00:24;13.98;;;5.80;;
61254;SDS011;47128;47.530;8.584;2022-10-16T05:02:50;24.38;;;6.93;;
61254;SDS011;47128;47.530;8.584;2022-10-16T05:05:16;19.77;;;6.65;;
61254;SDS011;47128;47.530;8.584;2022-10-16T05:07:44;14.30;;;5.93;;
61254;SDS011;47128;47.530;8.584;2022-10-16T05:10:10;9.82;;;4.80;;
61254;SDS011;47128;47.530;8.584;2022-10-16T05:12:36;19.08;;;6.15;;
61254;SDS011;47128;47.530;8.584;2022-10-16T05:15:01;21.55;;;6.80;;
61254;SDS011;47128;47.530;8.584;2022-10-16T05:17:27;68.10;;;8.45;;
61254;SDS011;47128;47.530;8.584;2022-10-16T05:19:53;83.10;;;8.13;;
61254;SDS011;47128;47.530;8.584;2022-10-16T05:22:19;44.70;;;5.55;;
61254;SDS011;47128;47.530;8.584;2022-10-16T05:25:01;8.25;;;4.15;;
61254;SDS011;47128;47.530;8.584;2022-10-16T05:27:27;9.27;;;4.43;;
61254;SDS011;47128;47.530;8.584;2022-10-16T05:29:53;8.07;;;4.43;;
61254;SDS011;47128;47.530;8.584;2022-10-16T05:32:18;15.90;;;5.88;;
61254;SDS011;47128;47.530;8.584;2022-10-16T05:34:44;13.30;;;6.13;;
61254;SDS011;47128;47.530;8.584;2022-10-16T05:37:10;25.63;;;10.45;;
61254;SDS011;47128;47.530;8.584;2022-10-16T05:39:37;21.13;;;7.70;;
61254;SDS011;47128;47.530;8.584;2022-10-16T05:42:03;14.07;;;7.43;;
61254;SDS011;47128;47.530;8.584;2022-10-16T05:44:30;15.38;;;8.13;;
61254;SDS011;47128;47.530;8.584;2022-10-16T05:46:55;11.38;;;6.97;;
61254;SDS011;47128;47.530;8.584;2022-10-16T05:49:21;17.27;;;8.90;;
61254;SDS011;47128;47.530;8.584;2022-10-16T05:51:47;18.20;;;8.48;;
61254;SDS011;47128;47.530;8.584;2022-10-16T05:54:12;15.57;;;7.28;;
61254;SDS011;47128;47.530;8.584;2022-10-16T05:56:38;69.32;;;10.25;;
61254;SDS011;47128;47.530;8.584;2022-10-16T05:59:04;77.40;;;13.05;;
61254;SDS011;47128;47.530;8.584;2022-10-16T06:01:30;31.75;;;8.95;;
61254;SDS011;47128;47.530;8.584;2022-10-16T06:03:56;37.67;;;8.13;;
61254;SDS011;47128;47.530;8.584;2022-10-16T06:06:23;25.52;;;7.57;;
61254;SDS011;47128;47.530;8.584;2022-10-16T06:08:53;12.02;;;6.40;;
61254;SDS011;47128;47.530;8.584;2022-10-16T06:11:25;8.52;;;5.00;;
61254;SDS011;47128;47.530;8.584;2022-10-16T06:13:53;6.90;;;4.90;;
61254;SDS011;47128;47.530;8.584;2022-10-16T06:16:21;7.93;;;4.30;;
61254;SDS011;47128;47.530;8.584;2022-10-16T06:18:47;9.20;;;5.30;;
61254;SDS011;47128;47.530;8.584;2022-10-16T06:21:21;9.43;;;5.10;;
61254;SDS011;47128;47.530;8.584;2022-10-16T06:23:49;5.53;;;4.05;;
61254;SDS011;47128;47.530;8.584;2022-10-16T06:26:17;7.53;;;4.32;;
61254;SDS011;47128;47.530;8.584;2022-10-16T06:28:44;8.60;;;4.30;;
61254;SDS011;47128;47.530;8.584;2022-10-16T06:31:10;5.90;;;4.07;;
61254;SDS011;47128;47.530;8.584;2022-10-16T06:33:37;5.90;;;3.90;;
61254;SDS011;47128;47.530;8.584;2022-10-16T06:36:10;10.82;;;4.68;;
61254;SDS011;47128;47.530;8.584;2022-10-16T06:38:37;23.58;;;5.70;;
61254;SDS011;47128;47.530;8.584;2022-10-16T06:41:04;7.65;;;4.88;;
61254;SDS011;47128;47.530;8.584;2022-10-16T06:43:30;8.25;;;6.00;;
61254;SDS011;47128;47.530;8.584;2022-10-16T06:45:57;9.80;;;5.22;;
61254;SDS011;47128;47.530;8.584;2022-10-16T06:48:24;16.00;;;5.38;;
61254;SDS011;47128;47.530;8.584;2022-10-16T06:51:01;7.22;;;4.70;;
61254;SDS011;47128;47.530;8.584;2022-10-16T06:53:39;7.70;;;4.88;;
61254;SDS011;47128;47.530;8.584;2022-10-16T06:56:14;7.35;;;4.60;;
61254;SDS011;47128;47.530;8.584;2022-10-16T06:58:41;24.95;;;5.90;;
61254;SDS011;47128;47.530;8.584;2022-10-16T07:01:07;12.68;;;5.32;;
61254;SDS011;47128;47.530;8.584;2022-10-16T07:03:35;9.60;;;5.13;;
61254;SDS011;47128;47.530;8.584;2022-10-16T07:06:03;8.82;;;5.10;;
61254;SDS011;47128;47.530;8.584;2022-10-16T07:08:30;10.43;;;4.72;;
61254;SDS011;47128;47.530;8.584;2022-10-16T07:10:58;14.45;;;4.70;;
61254;SDS011;47128;47.530;8.584;2022-10-16T07:13:27;15.70;;;4.65;;
61254;SDS011;47128;47.530;8.584;2022-10-16T07:15:53;12.13;;;4.60;;
61254;SDS011;47128;47.530;8.584;2022-10-16T07:18:19;14.38;;;5.18;;
61254;SDS011;47128;47.530;8.584;2022-10-16T07:20:44;8.48;;;4.57;;
61254;SDS011;47128;47.530;8.584;2022-10-16T07:23:10;6.53;;;4.60;;
61254;SDS011;47128;47.530;8.584;2022-10-16T07:25:35;12.70;;;5.00;;
61254;SDS011;47128;47.530;8.584;2022-10-16T07:28:01;12.40;;;5.07;;
61254;SDS011;47128;47.530;8.584;2022-10-16T07:30:27;11.48;;;4.85;;
61254;SDS011;47128;47.530;8.584;2022-10-16T07:32:52;45.05;;;6.60;;
61254;SDS011;47128;47.530;8.584;2022-10-16T07:35:18;6.57;;;4.40;;
61254;SDS011;47128;47.530;8.584;2022-10-16T07:37:45;25.80;;;5.13;;
61254;SDS011;47128;47.530;8.584;2022-10-16T07:40:11;10.02;;;4.22;;
61254;SDS011;47128;47.530;8.584;2022-10-16T07:42:36;30.33;;;5.43;;
61254;SDS011;47128;47.530;8.584;2022-10-16T07:45:02;22.80;;;5.13;;
61254;SDS011;47128;47.530;8.584;2022-10-16T07:47:28;9.15;;;4.10;;
61254;SDS011;47128;47.530;8.584;2022-10-16T07:49:54;14.05;;;4.22;;
61254;SDS011;47128;47.530;8.584;2022-10-16T07:52:20;21.52;;;4.47;;
61254;SDS011;47128;47.530;8.584;2022-10-16T07:54:45;9.68;;;4.38;;
61254;SDS011;47128;47.530;8.584;2022-10-16T07:57:11;34.20;;;5.70;;
61254;SDS011;47128;47.530;8.584;2022-10-16T07:59:37;25.20;;;5.72;;
61254;SDS011;47128;47.530;8.584;2022-10-16T08:02:02;13.93;;;4.13;;
61254;SDS011;47128;47.530;8.584;2022-10-16T08:04:28;10.48;;;4.20;;
61254;SDS011;47128;47.530;8.584;2022-10-16T08:06:53;6.18;;;3.70;;
61254;SDS011;47128;47.530;8.584;2022-10-16T08:09:19;4.15;;;3.30;;
61254;SDS011;47128;47.530;8.584;2022-10-16T08:11:45;8.20;;;3.90;;
61254;SDS011;47128;47.530;8.584;2022-10-16T08:14:12;6.03;;;3.47;;
61254;SDS011;47128;47.530;8.584;2022-10-16T08:16:38;5.50;;;3.97;;
61254;SDS011;47128;47.530;8.584;2022-10-16T08:19:03;7.47;;;4.55;;
61254;SDS011;47128;47.530;8.584;2022-10-16T08:21:29;5.78;;;3.92;;
61254;SDS011;47128;47.530;8.584;2022-10-16T08:23:55;6.03;;;4.10;;
61254;SDS011;47128;47.530;8.584;2022-10-16T08:26:20;5.38;;;4.28;;
61254;SDS011;47128;47.530;8.584;2022-10-16T08:28:49;9.07;;;5.15;;
61254;SDS011;47128;47.530;8.584;2022-10-16T08:31:16;11.68;;;5.40;;
61254;SDS011;47128;47.530;8.584;2022-10-16T08:33:42;11.15;;;5.15;;
61254;SDS011;47128;47.530;8.584;2022-10-16T08:36:12;7.57;;;4.35;;
61254;SDS011;47128;47.530;8.584;2022-10-16T08:38:38;5.40;;;4.13;;
61254;SDS011;47128;47.530;8.584;2022-10-16T08:41:53;4.80;;;3.00;;
61254;SDS011;47128;47.530;8.584;2022-10-16T08:44:09;5.03;;;3.25;;
61254;SDS011;47128;47.530;8.584;2022-10-16T08:46:45;3.35;;;3.00;;
61254;SDS011;47128;47.530;8.584;2022-10-16T08:49:26;3.92;;;2.80;;
61254;SDS011;47128;47.530;8.584;2022-10-16T08:51:52;2.92;;;2.60;;
61254;SDS011;47128;47.530;8.584;2022-10-16T08:57:09;5.28;;;2.40;;
61254;SDS011;47128;47.530;8.584;2022-10-16T08:59:39;2.28;;;2.08;;
61254;SDS011;47128;47.530;8.584;2022-10-16T09:02:13;2.40;;;2.20;;
61254;SDS011;47128;47.530;8.584;2022-10-16T09:07:32;2.63;;;2.00;;
61254;SDS011;47128;47.530;8.584;2022-10-16T09:15:45;2.03;;;1.75;;
61254;SDS011;47128;47.530;8.584;2022-10-16T09:21:14;3.92;;;1.60;;
61254;SDS011;47128;47.530;8.584;2022-10-16T09:23:44;2.72;;;1.90;;
61254;SDS011;47128;47.530;8.584;2022-10-16T09:26:11;1.67;;;1.58;;
61254;SDS011;47128;47.530;8.584;2022-10-16T09:28:39;3.92;;;1.75;;
61254;SDS011;47128;47.530;8.584;2022-10-16T09:31:05;2.55;;;2.00;;
61254;SDS011;47128;47.530;8.584;2022-10-16T09:33:35;2.25;;;1.70;;
61254;SDS011;47128;47.530;8.584;2022-10-16T09:36:04;2.83;;;1.92;;
61254;SDS011;47128;47.530;8.584;2022-10-16T09:38:32;4.60;;;1.83;;
61254;SDS011;47128;47.530;8.584;2022-10-16T09:41:01;1.95;;;1.30;;
61254;SDS011;47128;47.530;8.584;2022-10-16T09:43:46;3.58;;;1.58;;
61254;SDS011;47128;47.530;8.584;2022-10-16T09:46:22;2.22;;;1.50;;
61254;SDS011;47128;47.530;8.584;2022-10-16T09:49:01;6.22;;;1.63;;
61254;SDS011;47128;47.530;8.584;2022-10-16T09:51:30;5.20;;;1.67;;
61254;SDS011;47128;47.530;8.584;2022-10-16T09:54:01;4.45;;;1.50;;
61254;SDS011;47128;47.530;8.584;2022-10-16T09:56:37;9.52;;;1.42;;
61254;SDS011;47128;47.530;8.584;2022-10-16T09:59:13;2.72;;;1.27;;
61254;SDS011;47128;47.530;8.584;2022-10-16T10:01:47;3.20;;;1.13;;
61254;SDS011;47128;47.530;8.584;2022-10-16T10:04:13;2.03;;;1.23;;
61254;SDS011;47128;47.530;8.584;2022-10-16T10:06:50;3.35;;;1.10;;
61254;SDS011;47128;47.530;8.584;2022-10-16T10:09:25;1.77;;;1.17;;
61254;SDS011;47128;47.530;8.584;2022-10-16T10:11:58;3.90;;;1.20;;
61254;SDS011;47128;47.530;8.584;2022-10-16T10:14:35;3.10;;;1.40;;
61254;SDS011;47128;47.530;8.584;2022-10-16T10:19:37;1.92;;;1.33;;
61254;SDS011;47128;47.530;8.584;2022-10-16T10:30:36;5.15;;;1.27;;
61254;SDS011;47128;47.530;8.584;2022-10-16T10:38:52;3.47;;;1.35;;
61254;SDS011;47128;47.530;8.584;2022-10-16T10:47:00;3.47;;;1.58;;
61254;SDS011;47128;47.530;8.584;2022-10-16T10:56:19;4.07;;;1.30;;
61254;SDS011;47128;47.530;8.584;2022-10-16T10:58:55;2.85;;;1.27;;
61254;SDS011;47128;47.530;8.584;2022-10-16T11:07:10;5.82;;;1.38;;
61254;SDS011;47128;47.530;8.584;2022-10-16T11:09:50;1.63;;;1.15;;
61254;SDS011;47128;47.530;8.584;2022-10-16T11:14:52;3.53;;;1.52;;
61254;SDS011;47128;47.530;8.584;2022-10-16T11:17:40;7.43;;;1.75;;
61254;SDS011;47128;47.530;8.584;2022-10-16T11:23:05;3.20;;;2.28;;
61254;SDS011;47128;47.530;8.584;2022-10-16T11:25:43;5.50;;;1.20;;
61254;SDS011;47128;47.530;8.584;2022-10-16T11:28:23;3.42;;;1.42;;
61254;SDS011;47128;47.530;8.584;2022-10-16T11:30:57;3.28;;;1.40;;
61254;SDS011;47128;47.530;8.584;2022-10-16T11:36:14;4.82;;;1.58;;
61254;SDS011;47128;47.530;8.584;2022-10-16T11:38:50;2.75;;;1.52;;
61254;SDS011;47128;47.530;8.584;2022-10-16T11:50:22;3.08;;;1.45;;
61254;SDS011;47128;47.530;8.584;2022-10-16T11:56:15;4.43;;;1.80;;
61254;SDS011;47128;47.530;8.584;2022-10-16T11:58:54;4.88;;;1.23;;
61254;SDS011;47128;47.530;8.584;2022-10-16T12:01:31;2.78;;;1.30;;
61254;SDS011;47128;47.530;8.584;2022-10-16T12:06:45;1.58;;;1.08;;
61254;SDS011;47128;47.530;8.584;2022-10-16T12:09:25;3.17;;;1.35;;
61254;SDS011;47128;47.530;8.584;2022-10-16T12:11:53;2.05;;;1.52;;
61254;SDS011;47128;47.530;8.584;2022-10-16T12:14:21;2.05;;;1.30;;
61254;SDS011;47128;47.530;8.584;2022-10-16T12:17:02;3.72;;;1.38;;
61254;SDS011;47128;47.530;8.584;2022-10-16T12:19:58;7.60;;;2.08;;
61254;SDS011;47128;47.530;8.584;2022-10-16T12:22:26;3.83;;;1.40;;
61254;SDS011;47128;47.530;8.584;2022-10-16T12:24:55;2.05;;;1.15;;
61254;SDS011;47128;47.530;8.584;2022-10-16T12:27:29;3.40;;;1.20;;
61254;SDS011;47128;47.530;8.584;2022-10-16T12:29:57;2.90;;;1.15;;
61254;SDS011;47128;47.530;8.584;2022-10-16T12:32:32;7.18;;;1.27;;
61254;SDS011;47128;47.530;8.584;2022-10-16T12:35:00;2.35;;;1.00;;
61254;SDS011;47128;47.530;8.584;2022-10-16T12:37:28;1.55;;;1.10;;
61254;SDS011;47128;47.530;8.584;2022-10-16T12:39:58;2.08;;;1.13;;
61254;SDS011;47128;47.530;8.584;2022-10-16T12:42:36;0.93;;;0.93;;
61254;SDS011;47128;47.530;8.584;2022-10-16T12:45:02;2.53;;;1.08;;
61254;SDS011;47128;47.530;8.584;2022-10-16T12:48:02;3.42;;;1.08;;
61254;SDS011;47128;47.530;8.584;2022-10-16T12:50:44;1.25;;;0.90;;
61254;SDS011;47128;47.530;8.584;2022-10-16T12:53:20;3.40;;;1.00;;
61254;SDS011;47128;47.530;8.584;2022-10-16T12:55:51;0.90;;;0.90;;
61254;SDS011;47128;47.530;8.584;2022-10-16T13:01:18;1.77;;;1.00;;
61254;SDS011;47128;47.530;8.584;2022-10-16T13:04:08;3.58;;;1.17;;
61254;SDS011;47128;47.530;8.584;2022-10-16T13:15:37;2.75;;;1.20;;
61254;SDS011;47128;47.530;8.584;2022-10-16T13:18:26;4.10;;;1.25;;
61254;SDS011;47128;47.530;8.584;2022-10-16T13:21:07;3.38;;;1.23;;
61254;SDS011;47128;47.530;8.584;2022-10-16T13:23:54;1.98;;;1.17;;
61254;SDS011;47128;47.530;8.584;2022-10-16T13:29:34;3.80;;;1.20;;
61254;SDS011;47128;47.530;8.584;2022-10-16T13:32:00;3.63;;;1.25;;
61254;SDS011;47128;47.530;8.584;2022-10-16T13:34:32;3.17;;;1.30;;
61254;SDS011;47128;47.530;8.584;2022-10-16T13:37:28;3.08;;;1.20;;
61254;SDS011;47128;47.530;8.584;2022-10-16T13:40:02;5.28;;;1.30;;
61254;SDS011;47128;47.530;8.584;2022-10-16T13:42:45;3.78;;;1.48;;
61254;SDS011;47128;47.530;8.584;2022-10-16T13:45:18;3.78;;;1.17;;
61254;SDS011;47128;47.530;8.584;2022-10-16T13:48:11;6.10;;;1.25;;
61254;SDS011;47128;47.530;8.584;2022-10-16T13:50:37;3.85;;;1.38;;
61254;SDS011;47128;47.530;8.584;2022-10-16T13:53:06;3.47;;;1.23;;
61254;SDS011;47128;47.530;8.584;2022-10-16T13:55:39;3.75;;;1.42;;
61254;SDS011;47128;47.530;8.584;2022-10-16T13:58:07;2.40;;;1.30;;
61254;SDS011;47128;47.530;8.584;2022-10-16T14:00:33;3.35;;;1.27;;
61254;SDS011;47128;47.530;8.584;2022-10-16T14:03:04;4.03;;;1.30;;
61254;SDS011;47128;47.530;8.584;2022-10-16T14:05:33;4.22;;;1.88;;
61254;SDS011;47128;47.530;8.584;2022-10-16T14:07:59;3.97;;;1.30;;
61254;SDS011;47128;47.530;8.584;2022-10-16T14:10:27;1.42;;;1.08;;
61254;SDS011;47128;47.530;8.584;2022-10-16T14:13:00;3.78;;;1.40;;
61254;SDS011;47128;47.530;8.584;2022-10-16T14:15:29;4.20;;;1.50;;
61254;SDS011;47128;47.530;8.584;2022-10-16T14:17:56;2.08;;;1.45;;
61254;SDS011;47128;47.530;8.584;2022-10-16T14:20:24;2.05;;;1.33;;
61254;SDS011;47128;47.530;8.584;2022-10-16T14:22:59;4.50;;;1.40;;
61254;SDS011;47128;47.530;8.584;2022-10-16T14:25:28;6.70;;;1.67;;
61254;SDS011;47128;47.530;8.584;2022-10-16T14:27:56;4.82;;;1.60;;
61254;SDS011;47128;47.530;8.584;2022-10-16T14:30:31;3.15;;;1.60;;
61254;SDS011;47128;47.530;8.584;2022-10-16T14:32:59;4.47;;;1.50;;
61254;SDS011;47128;47.530;8.584;2022-10-16T14:35:36;8.88;;;1.80;;
61254;SDS011;47128;47.530;8.584;2022-10-16T14:38:04;3.60;;;1.80;;
61254;SDS011;47128;47.530;8.584;2022-10-16T14:40:32;3.22;;;1.73;;
61254;SDS011;47128;47.530;8.584;2022-10-16T14:43:01;5.13;;;1.90;;
61254;SDS011;47128;47.530;8.584;2022-10-16T14:45:29;4.85;;;1.88;;
61254;SDS011;47128;47.530;8.584;2022-10-16T14:48:00;15.75;;;1.75;;
61254;SDS011;47128;47.530;8.584;2022-10-16T14:50:29;4.35;;;1.40;;
61254;SDS011;47128;47.530;8.584;2022-10-16T14:52:55;4.00;;;1.50;;
61254;SDS011;47128;47.530;8.584;2022-10-16T14:55:21;7.72;;;1.60;;
61254;SDS011;47128;47.530;8.584;2022-10-16T14:57:46;3.63;;;1.38;;
61254;SDS011;47128;47.530;8.584;2022-10-16T15:00:22;8.98;;;1.65;;
61254;SDS011;47128;47.530;8.584;2022-10-16T15:02:49;6.07;;;1.38;;
61254;SDS011;47128;47.530;8.584;2022-10-16T15:05:17;4.30;;;1.60;;
61254;SDS011;47128;47.530;8.584;2022-10-16T15:07:51;4.03;;;1.40;;
61254;SDS011;47128;47.530;8.584;2022-10-16T15:10:18;10.38;;;1.40;;
61254;SDS011;47128;47.530;8.584;2022-10-16T15:12:46;3.80;;;1.20;;
61254;SDS011;47128;47.530;8.584;2022-10-16T15:17:40;4.13;;;1.23;;
61254;SDS011;47128;47.530;8.584;2022-10-16T15:20:06;4.70;;;1.25;;
61254;SDS011;47128;47.530;8.584;2022-10-16T15:22:32;4.45;;;1.30;;
61254;SDS011;47128;47.530;8.584;2022-10-16T15:24:58;3.88;;;1.20;;
61254;SDS011;47128;47.530;8.584;2022-10-16T15:27:23;7.80;;;1.58;;
61254;SDS011;47128;47.530;8.584;2022-10-16T15:29:49;4.53;;;1.48;;
61254;SDS011;47128;47.530;8.584;2022-10-16T15:32:14;5.63;;;1.17;;
61254;SDS011;47128;47.530;8.584;2022-10-16T15:34:40;4.90;;;1.65;;
61254;SDS011;47128;47.530;8.584;2022-10-16T15:37:08;2.58;;;1.20;;
61254;SDS011;47128;47.530;8.584;2022-10-16T15:39:34;3.45;;;1.42;;
61254;SDS011;47128;47.530;8.584;2022-10-16T15:41:59;5.07;;;1.23;;
61254;SDS011;47128;47.530;8.584;2022-10-16T15:44:25;6.35;;;1.35;;
61254;SDS011;47128;47.530;8.584;2022-10-16T15:46:55;3.35;;;1.52;;
61254;SDS011;47128;47.530;8.584;2022-10-16T15:49:21;6.13;;;1.50;;
61254;SDS011;47128;47.530;8.584;2022-10-16T15:51:47;4.97;;;1.70;;
61254;SDS011;47128;47.530;8.584;2022-10-16T15:54:13;3.50;;;1.27;;
61254;SDS011;47128;47.530;8.584;2022-10-16T15:56:38;3.17;;;1.48;;
61254;SDS011;47128;47.530;8.584;2022-10-16T15:59:04;12.35;;;5.05;;
61254;SDS011;47128;47.530;8.584;2022-10-16T16:01:33;14.75;;;6.57;;
61254;SDS011;47128;47.530;8.584;2022-10-16T16:03:59;5.63;;;2.97;;
61254;SDS011;47128;47.530;8.584;2022-10-16T16:06:26;7.90;;;3.40;;
61254;SDS011;47128;47.530;8.584;2022-10-16T16:08:52;11.00;;;3.30;;
61254;SDS011;47128;47.530;8.584;2022-10-16T16:11:18;14.73;;;4.63;;
61254;SDS011;47128;47.530;8.584;2022-10-16T16:13:45;13.15;;;5.28;;
61254;SDS011;47128;47.530;8.584;2022-10-16T16:16:12;15.00;;;6.43;;
61254;SDS011;47128;47.530;8.584;2022-10-16T16:18:41;11.48;;;4.93;;
61254;SDS011;47128;47.530;8.584;2022-10-16T16:21:07;9.73;;;4.10;;
61254;SDS011;47128;47.530;8.584;2022-10-16T16:23:35;11.88;;;4.53;;
61254;SDS011;47128;47.530;8.584;2022-10-16T16:26:05;11.02;;;4.68;;
61254;SDS011;47128;47.530;8.584;2022-10-16T16:28:36;7.85;;;4.13;;
61254;SDS011;47128;47.530;8.584;2022-10-16T16:31:02;10.60;;;4.50;;
61254;SDS011;47128;47.530;8.584;2022-10-16T16:33:28;12.20;;;4.28;;
61254;SDS011;47128;47.530;8.584;2022-10-16T16:35:59;7.50;;;2.90;;
61254;SDS011;47128;47.530;8.584;2022-10-16T16:38:29;8.50;;;2.80;;
61254;SDS011;47128;47.530;8.584;2022-10-16T16:40:56;8.68;;;2.33;;